Terminal Aerodrome Forecast
Issued by NWS

Home | Current Version | Previous Version | Graphics & Text | Print | Product List | Glossary On
Versions: 1 2 3 4 5 6 7 8 9 10 11 12 13 14 15 16
000
FTUS43 KGRB 261521 AAA
TAFMTW
TAF AMD
KMTW 261521Z 2615/2712 30005KT P6SM BKN019 OVC040
      TEMPO 2615/2617 SCT019 BKN040
     FM261700 33006KT P6SM SCT030 BKN040
     FM262000 33006KT P6SM SCT050
     FM270100 VRB03KT P6SM SKC=

USA.gov is the U.S. government's official web portal to all federal, state and local government web resources and services.